Time;durP1;ratioP1;P1;durP2;ratioP2;P2;SDS_P1;SDS_P2;PMS_P1;PMS_P2;Temp;Humidity;BMP_temperature;BMP_pressure;BME280_temperature;BME280_humidity;BME280_pressure;Samples;Min_cycle;Max_cycle;Signal;HPM_P1;HPM_P2
2023/03/12 00:02:07;;;;;;;13.65;5.60;;;2.70;99.90;;;;;;5041383;28;20029;-60
2023/03/12 00:04:34;;;;;;;10.07;5.88;;;2.70;99.90;;;;;;5029050;28;20365;-60
2023/03/12 00:07:01;;;;;;;13.10;6.53;;;2.70;99.90;;;;;;5022983;28;20044;-60
2023/03/12 00:09:26;;;;;;;9.98;6.15;;;2.80;99.90;;;;;;5032657;28;20052;-60
2023/03/12 00:11:52;;;;;;;10.45;6.05;;;2.70;99.90;;;;;;5032937;28;20030;-60
2023/03/12 00:14:18;;;;;;;13.10;6.25;;;2.80;99.90;;;;;;5037658;28;20382;-60
2023/03/12 00:16:43;;;;;;;13.70;5.82;;;2.80;99.90;;;;;;5033474;28;20045;-60
2023/03/12 00:19:11;;;;;;;13.23;5.80;;;2.80;99.90;;;;;;5035218;28;20025;-60
2023/03/12 00:21:37;;;;;;;10.82;5.90;;;3.00;99.90;;;;;;5039973;28;20091;-60
2023/03/12 00:24:03;;;;;;;12.40;6.13;;;3.00;99.90;;;;;;5038269;28;20034;-60
2023/03/12 00:26:30;;;;;;;15.77;6.25;;;3.00;99.90;;;;;;5043098;28;20629;-60
2023/03/12 00:28:55;;;;;;;11.23;6.15;;;2.80;99.90;;;;;;5040170;28;20079;-59
2023/03/12 00:31:27;;;;;;;15.82;6.60;;;2.80;99.90;;;;;;5036677;28;20044;-60
2023/03/12 00:33:53;;;;;;;13.43;6.47;;;3.00;99.90;;;;;;5043191;28;20473;-59
2023/03/12 00:36:23;;;;;;;11.30;6.53;;;2.90;99.90;;;;;;5042951;28;20100;-60
2023/03/12 00:38:49;;;;;;;12.85;6.53;;;3.00;99.90;;;;;;5040294;28;20102;-59
2023/03/12 00:41:15;;;;;;;12.15;6.88;;;3.10;99.90;;;;;;5041314;28;20066;-59
2023/03/12 00:43:41;;;;;;;15.43;7.35;;;3.10;99.90;;;;;;5049440;28;20121;-60
2023/03/12 00:46:06;;;;;;;20.20;7.18;;;3.20;99.90;;;;;;5036674;28;20037;-59
2023/03/12 00:48:32;;;;;;;11.98;7.13;;;3.20;99.90;;;;;;5037317;28;20560;-59
2023/03/12 00:50:58;;;;;;;14.23;7.35;;;3.20;99.90;;;;;;5031754;28;20037;-60
2023/03/12 00:53:24;;;;;;;12.45;7.78;;;3.20;99.90;;;;;;5038241;28;20152;-59
2023/03/12 00:55:49;;;;;;;13.25;7.55;;;3.20;99.90;;;;;;5033356;28;20037;-59
2023/03/12 00:58:15;;;;;;;13.40;7.05;;;3.20;99.90;;;;;;5036549;28;20033;-60
2023/03/12 01:00:40;;;;;;;13.40;7.68;;;3.20;99.90;;;;;;5031003;28;20141;-59
2023/03/12 01:03:06;;;;;;;13.82;7.32;;;3.40;99.90;;;;;;5038785;28;20049;-59
2023/03/12 01:05:36;;;;;;;12.50;7.80;;;3.30;99.90;;;;;;5035959;28;20045;-59
2023/03/12 01:08:03;;;;;;;19.63;7.53;;;3.30;99.90;;;;;;5019922;28;20439;-59
2023/03/12 01:10:29;;;;;;;13.40;7.68;;;3.40;99.90;;;;;;5036486;28;20033;-59
2023/03/12 01:12:55;;;;;;;16.25;8.13;;;3.50;99.90;;;;;;5038782;28;20090;-59
2023/03/12 01:15:21;;;;;;;11.55;7.55;;;3.50;99.90;;;;;;5042798;28;20041;-59
2023/03/12 01:17:46;;;;;;;14.48;8.60;;;3.40;99.90;;;;;;5043471;28;20068;-59
2023/03/12 01:20:12;;;;;;;13.93;7.82;;;3.30;99.90;;;;;;5038539;28;20025;-59
2023/03/12 01:22:38;;;;;;;17.38;7.80;;;3.40;99.90;;;;;;5032759;28;20033;-59
2023/03/12 01:25:05;;;;;;;15.85;8.43;;;3.30;99.90;;;;;;5040457;28;20048;-59
2023/03/12 01:27:30;;;;;;;17.75;8.23;;;3.30;99.90;;;;;;5031256;28;20037;-59
2023/03/12 01:29:56;;;;;;;19.92;7.93;;;3.40;99.90;;;;;;5030113;28;20128;-59
2023/03/12 01:32:22;;;;;;;15.10;7.90;;;3.40;99.90;;;;;;5014998;28;20228;-58
2023/03/12 01:34:47;;;;;;;14.05;7.40;;;3.30;99.90;;;;;;5019736;28;20044;-59
2023/03/12 01:37:13;;;;;;;14.05;7.35;;;3.30;99.90;;;;;;5019334;28;20396;-59
2023/03/12 01:39:39;;;;;;;16.08;6.68;;;3.40;99.90;;;;;;5015661;28;20040;-59
2023/03/12 01:42:05;;;;;;;12.93;7.57;;;3.40;99.90;;;;;;5016923;28;20102;-59
2023/03/12 01:44:47;;;;;;;13.30;7.00;;;3.30;99.90;;;;;;5017062;28;20045;-59
2023/03/12 01:47:12;;;;;;;12.57;6.25;;;3.20;99.90;;;;;;5023316;28;20034;-59
2023/03/12 01:49:38;;;;;;;13.40;6.50;;;3.20;99.90;;;;;;5042936;28;20485;-58
2023/03/12 01:52:09;;;;;;;12.02;6.00;;;3.00;99.90;;;;;;5046310;28;20107;-58
2023/03/12 01:54:48;;;;;;;13.93;6.35;;;3.10;99.90;;;;;;5038276;28;20044;-59
2023/03/12 01:57:29;;;;;;;12.10;6.03;;;3.00;99.90;;;;;;5042347;28;20095;-59
2023/03/12 02:00:04;;;;;;;12.18;6.18;;;3.10;99.90;;;;;;5034367;28;20403;-59
2023/03/12 02:02:30;;;;;;;13.50;6.40;;;3.30;99.90;;;;;;5029917;28;20593;-59
2023/03/12 02:05:22;;;;;;;12.60;6.50;;;3.20;99.90;;;;;;5045085;28;20240;-59
2023/03/12 02:07:48;;;;;;;8.65;4.05;;;3.20;99.90;;;;;;5032032;28;20227;-58
2023/03/12 02:10:14;;;;;;;13.25;5.47;;;3.20;99.90;;;;;;5048404;28;20108;-59
2023/03/12 02:12:40;;;;;;;11.00;5.40;;;3.30;99.90;;;;;;5037810;28;20037;-59
2023/03/12 02:15:06;;;;;;;10.50;5.25;;;3.20;99.90;;;;;;5043829;28;20049;-59
2023/03/12 02:17:32;;;;;;;9.70;5.00;;;3.10;99.90;;;;;;5044420;28;20045;-58
2023/03/12 02:20:12;;;;;;;11.68;5.03;;;2.90;99.90;;;;;;5045940;28;20036;-58
2023/03/12 02:22:41;;;;;;;11.00;5.30;;;3.10;99.90;;;;;;5024955;28;20547;-58
2023/03/12 02:25:27;;;;;;;9.18;5.20;;;3.00;99.90;;;;;;5027486;28;20033;-58
2023/03/12 02:27:54;;;;;;;9.40;5.05;;;3.00;99.90;;;;;;5035721;28;20029;-58
2023/03/12 02:30:20;;;;;;;10.27;4.95;;;3.10;99.90;;;;;;5030959;28;20029;-58
2023/03/12 02:32:48;;;;;;;14.43;5.25;;;2.90;99.90;;;;;;5038059;28;20029;-58
2023/03/12 02:35:15;;;;;;;13.18;5.40;;;2.80;99.90;;;;;;5036633;28;20033;-58
2023/03/12 02:37:49;;;;;;;16.98;5.18;;;3.00;99.90;;;;;;5031340;28;20042;-58
2023/03/12 02:40:21;;;;;;;10.43;5.43;;;3.00;99.90;;;;;;5025835;28;20318;-58
2023/03/12 02:42:47;;;;;;;9.40;4.65;;;3.10;99.90;;;;;;5038903;28;20045;-58
2023/03/12 02:45:13;;;;;;;9.77;4.90;;;3.10;99.90;;;;;;5037147;28;20376;-58
2023/03/12 02:47:39;;;;;;;7.82;4.32;;;3.10;99.90;;;;;;5029618;28;20106;-58
2023/03/12 02:50:05;;;;;;;8.90;5.30;;;3.10;99.90;;;;;;5042257;28;20060;-58
2023/03/12 02:52:34;;;;;;;10.05;4.80;;;3.20;99.90;;;;;;5023770;28;20044;-58
2023/03/12 02:55:00;;;;;;;9.77;4.78;;;3.20;99.90;;;;;;5034164;28;20186;-58
2023/03/12 02:57:26;;;;;;;7.88;4.78;;;3.20;99.90;;;;;;5035414;28;20453;-58
2023/03/12 02:59:51;;;;;;;11.15;4.80;;;3.20;99.90;;;;;;5037378;28;20037;-58
2023/03/12 03:02:17;;;;;;;9.45;4.30;;;3.20;99.90;;;;;;5036603;28;20438;-58
2023/03/12 03:04:42;;;;;;;13.63;4.45;;;3.10;99.90;;;;;;5035113;28;20535;-58
2023/03/12 03:07:08;;;;;;;7.07;4.38;;;3.10;99.90;;;;;;5028094;28;20381;-58
2023/03/12 03:09:33;;;;;;;8.10;4.05;;;3.00;99.90;;;;;;5038341;28;20029;-58
2023/03/12 03:11:59;;;;;;;9.68;4.38;;;3.00;99.90;;;;;;5040154;28;20079;-58
2023/03/12 03:14:25;;;;;;;10.60;4.65;;;3.10;99.90;;;;;;5036440;28;20037;-58
2023/03/12 03:16:50;;;;;;;9.98;4.50;;;3.00;99.90;;;;;;5033978;28;20037;-58
2023/03/12 03:19:16;;;;;;;8.85;4.60;;;3.10;99.90;;;;;;5042929;28;20464;-58
2023/03/12 03:21:42;;;;;;;7.28;4.10;;;3.20;99.90;;;;;;5044337;28;20068;-58
2023/03/12 03:24:08;;;;;;;12.23;4.32;;;3.20;99.90;;;;;;5041526;28;20037;-58
2023/03/12 03:26:34;;;;;;;12.32;4.72;;;3.20;99.90;;;;;;5038654;28;20358;-58
2023/03/12 03:28:59;;;;;;;10.35;4.28;;;3.10;99.90;;;;;;5037515;28;20105;-58
2023/03/12 03:31:25;;;;;;;7.90;4.40;;;3.00;99.90;;;;;;5036840;28;20052;-58
2023/03/12 03:33:51;;;;;;;8.65;4.38;;;3.10;99.90;;;;;;5028347;28;20034;-58
2023/03/12 03:36:17;;;;;;;11.20;4.75;;;3.10;99.90;;;;;;5029238;28;20392;-58
2023/03/12 03:38:48;;;;;;;10.55;4.80;;;3.20;99.90;;;;;;5026160;28;20048;-58
2023/03/12 03:41:14;;;;;;;13.38;4.93;;;3.20;99.90;;;;;;5027401;28;20057;-58
2023/03/12 03:43:40;;;;;;;8.38;4.72;;;3.20;99.90;;;;;;5036793;28;20481;-58
2023/03/12 03:46:05;;;;;;;11.20;4.50;;;3.20;99.90;;;;;;5034354;28;20140;-58
2023/03/12 03:48:32;;;;;;;9.65;4.22;;;3.20;99.90;;;;;;5044074;28;20143;-58
2023/03/12 03:51:01;;;;;;;9.00;4.38;;;3.20;99.90;;;;;;5046171;28;20036;-58
2023/03/12 03:53:27;;;;;;;9.82;4.45;;;3.30;99.90;;;;;;5040910;28;20065;-57
2023/03/12 03:55:53;;;;;;;8.57;4.50;;;3.30;99.90;;;;;;5037665;28;20064;-58
2023/03/12 03:58:18;;;;;;;8.90;4.72;;;3.20;99.90;;;;;;5039248;28;20191;-58
2023/03/12 04:00:45;;;;;;;9.43;4.72;;;3.30;99.90;;;;;;5033493;28;20037;-58
2023/03/12 04:03:12;;;;;;;7.82;4.28;;;3.30;99.90;;;;;;5041779;28;20099;-58
2023/03/12 04:05:38;;;;;;;9.57;4.38;;;3.20;99.90;;;;;;5031743;28;20037;-58
2023/03/12 04:08:04;;;;;;;8.38;4.32;;;3.10;99.90;;;;;;5036710;28;20155;-58
2023/03/12 04:10:30;;;;;;;9.30;4.40;;;3.20;99.90;;;;;;5044640;28;20547;-58
2023/03/12 04:12:56;;;;;;;12.70;4.28;;;3.20;99.90;;;;;;5029764;28;20036;-58
2023/03/12 04:15:22;;;;;;;9.30;4.70;;;3.30;99.90;;;;;;5046958;28;20083;-58
2023/03/12 04:17:48;;;;;;;10.40;4.07;;;3.30;99.90;;;;;;5051647;28;20045;-58
2023/03/12 04:20:14;;;;;;;10.02;4.30;;;3.40;99.90;;;;;;5032722;28;20055;-58
2023/03/12 04:22:39;;;;;;;8.90;4.45;;;3.40;99.90;;;;;;5048438;28;20110;-58
2023/03/12 04:25:06;;;;;;;7.80;4.25;;;3.30;99.90;;;;;;5037966;28;20045;-58
2023/03/12 04:27:32;;;;;;;7.97;4.32;;;3.30;99.90;;;;;;5043654;28;20032;-58
2023/03/12 04:29:58;;;;;;;8.68;4.57;;;3.40;99.90;;;;;;5043255;28;20025;-58
2023/03/12 04:32:23;;;;;;;9.75;4.22;;;3.40;99.90;;;;;;5034827;28;20040;-58
2023/03/12 04:34:49;;;;;;;10.10;4.32;;;3.40;99.90;;;;;;5035498;28;20033;-58
2023/03/12 04:37:15;;;;;;;13.10;4.60;;;3.50;99.90;;;;;;5033442;28;20032;-58
2023/03/12 04:39:42;;;;;;;8.80;4.18;;;3.50;99.90;;;;;;5037427;28;20061;-58
2023/03/12 04:42:09;;;;;;;8.85;4.00;;;3.40;99.90;;;;;;5027889;28;20136;-58
2023/03/12 04:44:34;;;;;;;10.85;4.28;;;3.40;99.90;;;;;;5031226;28;20083;-58
2023/03/12 04:47:00;;;;;;;9.55;4.40;;;3.30;99.90;;;;;;5020254;28;20132;-58
2023/03/12 04:49:26;;;;;;;7.10;3.85;;;3.30;99.90;;;;;;5027434;28;20041;-58
2023/03/12 04:51:51;;;;;;;9.55;4.38;;;3.40;99.90;;;;;;5030406;28;20026;-58
2023/03/12 04:54:19;;;;;;;13.75;4.30;;;3.40;99.90;;;;;;5035168;28;20044;-58
2023/03/12 04:56:45;;;;;;;12.02;4.43;;;3.40;99.90;;;;;;5037837;28;20033;-59
2023/03/12 04:59:11;;;;;;;12.13;4.63;;;3.50;99.90;;;;;;5033735;28;20513;-58
2023/03/12 05:01:37;;;;;;;9.93;4.88;;;3.50;99.90;;;;;;5048175;28;20033;-58
2023/03/12 05:04:03;;;;;;;10.88;5.35;;;3.50;99.90;;;;;;5028223;28;20116;-58
2023/03/12 05:06:29;;;;;;;9.52;5.45;;;3.40;99.90;;;;;;5042459;28;20637;-58
2023/03/12 05:08:54;;;;;;;11.13;5.70;;;3.30;99.90;;;;;;5031789;28;20037;-59
2023/03/12 05:11:20;;;;;;;12.38;6.15;;;3.50;99.90;;;;;;5029712;28;20033;-59
2023/03/12 05:13:47;;;;;;;13.25;6.38;;;3.50;99.90;;;;;;5040621;28;20089;-59
2023/03/12 05:16:14;;;;;;;11.93;5.30;;;3.50;99.90;;;;;;5034998;28;20472;-59
2023/03/12 05:18:40;;;;;;;8.52;4.80;;;3.40;99.90;;;;;;5035544;28;20648;-59
2023/03/12 05:21:08;;;;;;;13.55;5.10;;;3.40;99.90;;;;;;5028700;28;20033;-59
2023/03/12 05:23:34;;;;;;;8.75;5.20;;;3.40;99.90;;;;;;5037501;28;20553;-59
2023/03/12 05:26:00;;;;;;;12.95;4.63;;;3.50;99.90;;;;;;5035759;28;20040;-58
2023/03/12 05:28:27;;;;;;;11.52;4.97;;;3.50;99.90;;;;;;5037530;28;20483;-58
2023/03/12 05:30:58;;;;;;;8.20;4.30;;;3.50;99.90;;;;;;5040915;28;20409;-60
2023/03/12 05:33:25;;;;;;;9.02;4.65;;;3.50;99.90;;;;;;5042946;28;20037;-59
2023/03/12 05:35:51;;;;;;;12.43;4.78;;;3.40;99.90;;;;;;5040882;28;20468;-59
2023/03/12 05:38:17;;;;;;;11.02;5.18;;;3.40;99.90;;;;;;5045816;28;20135;-58
2023/03/12 05:40:42;;;;;;;11.68;4.95;;;3.60;99.90;;;;;;5047085;28;20110;-59
2023/03/12 05:43:08;;;;;;;11.07;5.35;;;3.50;99.90;;;;;;5039347;28;20241;-58
2023/03/12 05:45:33;;;;;;;9.50;4.60;;;3.60;99.90;;;;;;5044910;28;20132;-59
2023/03/12 05:47:59;;;;;;;9.13;4.40;;;3.60;99.90;;;;;;5035977;28;20038;-59
2023/03/12 05:50:26;;;;;;;7.90;3.42;;;3.50;99.90;;;;;;5039224;28;20040;-59
2023/03/12 05:52:51;;;;;;;11.50;4.22;;;3.50;99.90;;;;;;5040893;28;20063;-58
2023/03/12 05:55:17;;;;;;;10.02;4.35;;;3.50;99.90;;;;;;5041401;28;20362;-58
2023/03/12 05:57:43;;;;;;;7.25;3.75;;;3.60;99.90;;;;;;5046313;28;20464;-59
2023/03/12 06:00:12;;;;;;;8.57;3.97;;;3.50;99.90;;;;;;5037229;28;20037;-58
2023/03/12 06:02:37;;;;;;;10.02;4.03;;;3.40;99.90;;;;;;5045064;28;20750;-58
2023/03/12 06:05:03;;;;;;;8.90;3.40;;;3.40;99.90;;;;;;5050260;28;20037;-58
2023/03/12 06:07:29;;;;;;;11.63;3.72;;;3.30;99.90;;;;;;5049602;28;20060;-58
2023/03/12 06:09:54;;;;;;;8.60;3.85;;;3.30;99.90;;;;;;5039406;28;20037;-58
2023/03/12 06:12:20;;;;;;;8.15;3.42;;;3.40;99.90;;;;;;5043310;28;20442;-59
2023/03/12 06:14:45;;;;;;;9.00;3.67;;;3.30;99.90;;;;;;5027194;28;20091;-58
2023/03/12 06:17:11;;;;;;;9.45;3.60;;;3.40;99.90;;;;;;5026042;28;20036;-59
2023/03/12 06:19:36;;;;;;;9.90;3.85;;;3.50;99.90;;;;;;5029016;28;20087;-58
2023/03/12 06:22:03;;;;;;;8.98;3.50;;;3.50;99.90;;;;;;5035741;28;20021;-59
2023/03/12 06:24:28;;;;;;;12.02;4.80;;;3.50;99.90;;;;;;5030433;28;20089;-59
2023/03/12 06:26:54;;;;;;;11.55;3.90;;;3.40;99.90;;;;;;5027290;28;20041;-58
2023/03/12 06:29:20;;;;;;;9.32;5.00;;;3.40;99.90;;;;;;5027795;28;20037;-59
2023/03/12 06:31:47;;;;;;;7.53;4.57;;;3.40;99.90;;;;;;5028590;28;20038;-58
2023/03/12 06:34:12;;;;;;;10.02;4.57;;;3.40;99.90;;;;;;5028023;28;20111;-59
2023/03/12 06:36:38;;;;;;;7.90;4.72;;;3.40;99.90;;;;;;5026876;28;20041;-59
2023/03/12 06:39:07;;;;;;;9.70;4.53;;;3.40;99.90;;;;;;5033036;28;20075;-58
2023/03/12 06:41:33;;;;;;;10.88;5.05;;;3.40;99.90;;;;;;5027842;28;20053;-59
2023/03/12 06:44:00;;;;;;;17.52;5.32;;;3.50;99.90;;;;;;5028730;28;20072;-59
2023/03/12 06:46:26;;;;;;;9.13;4.35;;;3.60;99.90;;;;;;5027284;28;20099;-58
2023/03/12 06:48:51;;;;;;;13.88;5.20;;;3.30;99.90;;;;;;5033500;28;20413;-58
2023/03/12 06:51:17;;;;;;;8.45;4.45;;;3.30;99.90;;;;;;5035982;28;20069;-58
2023/03/12 06:53:44;;;;;;;9.30;4.70;;;3.40;99.90;;;;;;5035835;28;20095;-59
2023/03/12 06:56:10;;;;;;;11.07;4.70;;;3.50;99.90;;;;;;5030220;28;20033;-59
2023/03/12 06:58:36;;;;;;;11.27;5.53;;;3.70;99.90;;;;;;5031120;28;20123;-59
2023/03/12 07:01:02;;;;;;;15.02;5.18;;;3.80;99.90;;;;;;5036080;28;20183;-58
2023/03/12 07:03:27;;;;;;;14.20;4.82;;;3.70;99.90;;;;;;5025897;28;20041;-59
2023/03/12 07:05:55;;;;;;;12.65;5.22;;;3.70;99.90;;;;;;5032808;28;20179;-58
2023/03/12 07:08:22;;;;;;;10.63;4.85;;;3.70;99.90;;;;;;5043988;28;20036;-58
2023/03/12 07:10:47;;;;;;;12.63;5.05;;;3.80;99.90;;;;;;5048187;28;20095;-58
2023/03/12 07:13:13;;;;;;;10.10;5.15;;;3.80;99.90;;;;;;5052611;28;20040;-59
2023/03/12 07:15:39;;;;;;;10.98;5.28;;;3.80;99.90;;;;;;5041571;28;20464;-58
2023/03/12 07:18:06;;;;;;;9.55;5.15;;;3.80;99.90;;;;;;5047126;28;20102;-58
2023/03/12 07:20:35;;;;;;;12.07;5.80;;;3.80;99.90;;;;;;5045517;28;20040;-58
2023/03/12 07:23:00;;;;;;;12.75;5.85;;;3.90;99.90;;;;;;5052940;28;20514;-59
2023/03/12 07:25:26;;;;;;;11.50;5.85;;;3.90;99.90;;;;;;5035228;28;20049;-58
2023/03/12 07:27:52;;;;;;;13.43;6.50;;;3.70;99.90;;;;;;5047905;28;20136;-59
2023/03/12 07:30:17;;;;;;;12.40;5.65;;;3.70;99.90;;;;;;5050452;28;20041;-59
2023/03/12 07:32:43;;;;;;;12.35;5.47;;;3.80;99.90;;;;;;5055176;28;20503;-59
2023/03/12 07:35:09;;;;;;;10.20;5.47;;;3.90;99.90;;;;;;5053195;28;20036;-58
2023/03/12 07:37:34;;;;;;;9.25;5.53;;;4.00;99.90;;;;;;5030816;28;20121;-59
2023/03/12 07:40:00;;;;;;;11.20;6.10;;;4.00;99.90;;;;;;5032312;28;20021;-58
2023/03/12 07:42:25;;;;;;;14.50;7.00;;;4.00;99.90;;;;;;5024110;28;20041;-59
2023/03/12 07:44:51;;;;;;;11.30;6.15;;;3.90;99.90;;;;;;5033472;28;20059;-58
2023/03/12 07:47:16;;;;;;;14.02;6.32;;;3.90;99.90;;;;;;5029428;28;20508;-58
2023/03/12 07:49:42;;;;;;;14.05;6.47;;;4.00;99.90;;;;;;5026452;28;20033;-58
2023/03/12 07:52:10;;;;;;;9.65;6.40;;;4.10;99.90;;;;;;5040280;28;20396;-59
2023/03/12 07:54:37;;;;;;;11.50;6.22;;;4.20;99.90;;;;;;5037318;28;20457;-59
2023/03/12 07:57:03;;;;;;;14.98;6.70;;;4.20;99.90;;;;;;5038116;28;20028;-58
2023/03/12 07:59:28;;;;;;;11.68;5.65;;;4.20;99.90;;;;;;5037699;28;20067;-59
2023/03/12 08:01:54;;;;;;;15.00;5.85;;;4.10;99.90;;;;;;5034186;28;20053;-59
2023/03/12 08:04:20;;;;;;;10.60;5.25;;;4.20;99.90;;;;;;5030705;28;20084;-58
2023/03/12 08:06:45;;;;;;;9.45;5.32;;;4.20;99.90;;;;;;5050762;28;20041;-58
2023/03/12 08:09:11;;;;;;;8.40;5.22;;;4.10;99.90;;;;;;5040929;28;20052;-59
2023/03/12 08:11:37;;;;;;;12.30;4.88;;;4.10;99.90;;;;;;5027899;28;20041;-59
2023/03/12 08:14:03;;;;;;;11.57;6.00;;;4.10;99.90;;;;;;5036046;28;20455;-58
2023/03/12 08:16:29;;;;;;;12.07;6.28;;;4.10;99.90;;;;;;5033421;28;20041;-58
2023/03/12 08:18:55;;;;;;;9.48;4.80;;;4.20;99.90;;;;;;5040590;28;20110;-58
2023/03/12 08:21:20;;;;;;;11.10;5.10;;;4.00;99.90;;;;;;5043027;28;20661;-59
2023/03/12 08:23:46;;;;;;;10.75;4.85;;;4.20;99.90;;;;;;5041753;28;20057;-58
2023/03/12 08:26:12;;;;;;;10.93;5.13;;;4.20;99.90;;;;;;5040638;28;20498;-58
2023/03/12 08:28:38;;;;;;;11.95;5.13;;;4.00;99.90;;;;;;5039087;28;20056;-58
2023/03/12 08:31:04;;;;;;;11.48;5.70;;;4.10;99.90;;;;;;5034166;28;20036;-57
2023/03/12 08:33:29;;;;;;;11.90;6.10;;;4.00;99.90;;;;;;5029041;28;20427;-58
2023/03/12 08:35:55;;;;;;;11.82;5.78;;;4.20;99.90;;;;;;5044515;28;20044;-56
2023/03/12 08:38:21;;;;;;;11.95;6.13;;;4.10;99.90;;;;;;5034544;28;20088;-57
2023/03/12 08:40:54;;;;;;;10.45;5.82;;;4.50;99.90;;;;;;5034738;28;20052;-58
2023/03/12 08:43:19;;;;;;;12.18;6.00;;;4.50;99.90;;;;;;5036953;28;20095;-58
2023/03/12 08:45:45;;;;;;;9.85;6.03;;;4.60;99.90;;;;;;5036687;28;20040;-58
2023/03/12 08:48:10;;;;;;;10.48;6.22;;;4.70;99.90;;;;;;5038335;28;20040;-57
2023/03/12 08:50:36;;;;;;;11.07;6.15;;;4.50;99.90;;;;;;5046552;28;20045;-58
2023/03/12 08:53:01;;;;;;;12.90;5.97;;;4.40;99.90;;;;;;5039916;28;20036;-57
2023/03/12 08:55:27;;;;;;;10.20;6.30;;;4.40;99.90;;;;;;5041098;28;20566;-58
2023/03/12 08:57:54;;;;;;;7.63;5.88;;;4.20;99.90;;;;;;5041474;28;20151;-58
2023/03/12 09:00:20;;;;;;;10.88;6.60;;;4.10;99.90;;;;;;5040780;28;20440;-58
2023/03/12 09:02:46;;;;;;;11.15;7.10;;;4.20;99.90;;;;;;5044180;28;20060;-58
2023/03/12 09:05:13;;;;;;;13.40;7.53;;;4.30;99.90;;;;;;5046098;28;20125;-58
2023/03/12 09:07:38;;;;;;;14.23;6.80;;;4.40;99.90;;;;;;5033340;28;20048;-58
2023/03/12 09:10:05;;;;;;;12.60;7.88;;;4.30;99.90;;;;;;5021368;28;20041;-58
2023/03/12 09:12:31;;;;;;;13.25;8.38;;;4.40;99.90;;;;;;5028679;28;20037;-57
2023/03/12 09:14:56;;;;;;;12.15;7.65;;;4.40;99.90;;;;;;5019979;28;20042;-56
2023/03/12 09:17:22;;;;;;;14.13;8.23;;;4.60;99.90;;;;;;5022424;28;20368;-57
2023/03/12 09:19:48;;;;;;;13.27;8.20;;;4.80;99.90;;;;;;5033402;28;20422;-57
2023/03/12 09:22:13;;;;;;;15.05;7.95;;;4.70;99.90;;;;;;5024862;28;20025;-57
2023/03/12 09:24:39;;;;;;;12.40;7.88;;;4.60;99.90;;;;;;5025026;28;20065;-58
2023/03/12 09:27:04;;;;;;;10.10;8.23;;;4.40;99.90;;;;;;5021498;28;20044;-57
2023/03/12 09:29:33;;;;;;;13.25;7.97;;;4.20;99.90;;;;;;5036356;28;20111;-58
2023/03/12 09:31:59;;;;;;;13.65;9.15;;;4.50;99.90;;;;;;5030205;28;20080;-58
2023/03/12 09:34:24;;;;;;;14.00;8.95;;;4.50;99.90;;;;;;5032849;28;20489;-57
2023/03/12 09:36:50;;;;;;;12.30;8.70;;;4.30;99.90;;;;;;5032341;28;20124;-57
2023/03/12 09:39:16;;;;;;;15.65;9.70;;;4.40;99.90;;;;;;5028497;28;20091;-57
2023/03/12 09:41:46;;;;;;;14.02;9.23;;;4.50;99.90;;;;;;5034733;28;20413;-58
2023/03/12 09:44:33;;;;;;;14.95;9.98;;;4.50;99.90;;;;;;5029067;28;20399;-57
2023/03/12 09:47:06;;;;;;;13.27;9.18;;;4.50;99.90;;;;;;5028752;28;20472;-57
2023/03/12 09:49:40;;;;;;;;;;;4.50;99.90;;;;;;5024508;28;20049;-57
2023/03/12 09:52:24;;;;;;;12.68;9.05;;;4.50;99.90;;;;;;5023918;28;20010;-57
2023/03/12 09:55:01;;;;;;;16.60;10.90;;;4.70;99.90;;;;;;5024798;28;20041;-57
2023/03/12 09:57:28;;;;;;;17.05;11.50;;;5.00;99.90;;;;;;5043732;28;20053;-57
2023/03/12 09:59:54;;;;;;;13.68;10.63;;;5.00;99.90;;;;;;5042002;28;20120;-56
2023/03/12 10:02:39;;;;;;;16.55;10.13;;;5.00;99.90;;;;;;5042973;28;20038;-57
2023/03/12 10:05:30;;;;;;;15.32;10.98;;;5.00;99.90;;;;;;5036287;28;20545;-57
2023/03/12 10:08:02;;;;;;;14.18;10.75;;;5.10;99.90;;;;;;5028623;28;20041;-57
2023/03/12 10:10:36;;;;;;;11.85;10.15;;;5.20;99.90;;;;;;5021798;28;20068;-57
2023/03/12 10:13:39;;;;;;;12.40;10.10;;;5.20;99.90;;;;;;5026053;28;20035;-57
2023/03/12 10:16:29;;;;;;;12.05;10.27;;;5.20;99.90;;;;;;5025268;28;20377;-57
2023/03/12 10:19:22;;;;;;;15.65;10.10;;;5.20;99.90;;;;;;5033231;28;20388;-57
2023/03/12 10:22:03;;;;;;;13.00;9.73;;;5.20;99.90;;;;;;5025328;28;20163;-58
2023/03/12 10:24:46;;;;;;;11.55;9.93;;;5.20;99.90;;;;;;5042585;28;20053;-57
2023/03/12 10:27:15;;;;;;;15.02;10.77;;;5.30;99.90;;;;;;5041071;28;20044;-58
2023/03/12 10:29:46;;;;;;;12.70;10.23;;;5.40;99.90;;;;;;5040560;28;20040;-58
2023/03/12 10:32:30;;;;;;;13.38;10.55;;;5.50;99.90;;;;;;5032083;28;20045;-57
2023/03/12 10:34:58;;;;;;;;;;;5.70;99.90;;;;;;5042570;28;20107;-57
2023/03/12 10:37:42;;;;;;;14.57;10.90;;;5.60;99.90;;;;;;5021267;28;19921;-58
2023/03/12 10:40:26;;;;;;;15.05;11.20;;;5.70;99.90;;;;;;5027655;28;20142;-57
2023/03/12 10:42:52;;;;;;;15.88;11.38;;;5.80;99.90;;;;;;5027438;28;20642;-57
2023/03/12 10:45:31;;;;;;;12.65;10.25;;;5.80;99.90;;;;;;5030604;28;20183;-58
2023/03/12 10:48:07;;;;;;;14.43;11.27;;;6.00;99.90;;;;;;5034831;28;20041;-58
2023/03/12 10:50:35;;;;;;;15.82;11.98;;;6.10;99.90;;;;;;5028381;28;20037;-57
2023/03/12 10:53:25;;;;;;;13.68;10.88;;;6.10;99.90;;;;;;5042835;28;20524;-58
2023/03/12 10:55:59;;;;;;;16.60;11.73;;;6.30;99.90;;;;;;5033298;28;20504;-58
2023/03/12 10:58:30;;;;;;;14.38;11.40;;;6.30;99.90;;;;;;5044429;28;20785;-57
2023/03/12 11:00:58;;;;;;;15.13;12.00;;;6.40;99.90;;;;;;5046562;28;20143;-57
2023/03/12 11:03:25;;;;;;;14.73;12.05;;;6.50;99.90;;;;;;5040226;28;20041;-58
2023/03/12 11:05:53;;;;;;;16.40;12.18;;;6.60;99.90;;;;;;5041123;28;20041;-58
2023/03/12 11:08:28;;;;;;;17.17;12.57;;;6.60;99.90;;;;;;5046667;28;20025;-58
2023/03/12 11:10:55;;;;;;;17.63;13.73;;;6.80;99.90;;;;;;5043850;28;20349;-57
2023/03/12 11:13:25;;;;;;;16.83;13.48;;;6.90;99.90;;;;;;5045315;28;20064;-58
2023/03/12 11:15:52;;;;;;;15.52;13.25;;;7.00;99.90;;;;;;5048026;28;20037;-57
2023/03/12 11:18:25;;;;;;;17.35;13.15;;;7.00;99.90;;;;;;5043404;28;20437;-57
2023/03/12 11:21:07;;;;;;;16.77;13.32;;;7.10;99.90;;;;;;5044554;28;20042;-58
2023/03/12 11:23:33;;;;;;;20.42;13.60;;;7.20;99.90;;;;;;5029902;28;20377;-58
2023/03/12 11:26:02;;;;;;;19.33;14.27;;;7.30;99.90;;;;;;5028523;28;20044;-58
2023/03/12 11:28:48;;;;;;;21.38;15.20;;;7.50;99.90;;;;;;5020781;28;20107;-58
2023/03/12 11:31:29;;;;;;;19.60;15.23;;;7.70;99.90;;;;;;5018742;28;20461;-57
2023/03/12 11:34:07;;;;;;;22.33;15.20;;;7.90;99.90;;;;;;5023790;28;20374;-58
2023/03/12 11:36:58;;;;;;;20.65;14.20;;;8.00;99.90;;;;;;5044189;28;20056;-58
2023/03/12 11:39:57;;;;;;;20.40;14.85;;;8.10;99.90;;;;;;5019628;28;20145;-58
2023/03/12 11:42:45;;;;;;;21.75;15.35;;;8.10;99.90;;;;;;5022135;28;20041;-57
2023/03/12 11:45:26;;;;;;;22.55;14.45;;;8.10;99.90;;;;;;5040340;28;20108;-57
2023/03/12 11:48:02;;;;;;;25.77;16.23;;;8.20;99.90;;;;;;5037679;28;20129;-57
2023/03/12 11:50:27;;;;;;;20.83;14.52;;;8.30;99.90;;;;;;5029916;28;20033;-57
2023/03/12 11:53:20;;;;;;;21.10;15.27;;;8.30;99.90;;;;;;5043369;28;20558;-57
2023/03/12 11:56:06;;;;;;;24.90;16.52;;;8.40;99.90;;;;;;5034134;28;20025;-58
2023/03/12 11:58:46;;;;;;;31.17;18.05;;;8.40;99.90;;;;;;5041288;28;21074;-58
2023/03/12 12:01:20;;;;;;;30.52;18.30;;;8.50;99.90;;;;;;5033818;28;20536;-58
2023/03/12 12:03:58;;;;;;;36.83;19.17;;;8.50;99.90;;;;;;5039421;28;20076;-58
2023/03/12 12:06:35;;;;;;;35.97;20.02;;;8.50;99.90;;;;;;5029541;28;20057;-58
2023/03/12 12:09:17;;;;;;;44.50;22.23;;;8.60;99.90;;;;;;5044680;28;20661;-58
2023/03/12 12:12:07;;;;;;;46.20;21.90;;;8.70;99.90;;;;;;5020492;28;20047;-58
2023/03/12 12:14:58;;;;;;;40.70;22.35;;;8.80;99.90;;;;;;5025986;28;20092;-57
2023/03/12 12:17:32;;;;;;;48.38;23.40;;;8.80;99.90;;;;;;5046847;28;20041;-58
2023/03/12 12:20:20;;;;;;;47.38;23.60;;;8.80;99.90;;;;;;5050067;28;20135;-58
2023/03/12 12:23:13;;;;;;;47.88;22.55;;;8.80;99.90;;;;;;5040223;28;20041;-58
2023/03/12 12:25:48;;;;;;;47.67;22.50;;;8.80;99.90;;;;;;5043672;28;20566;-58
2023/03/12 12:28:31;;;;;;;54.17;23.80;;;9.00;99.90;;;;;;5034088;28;20033;-58
2023/03/12 12:31:34;;;;;;;51.85;23.45;;;9.00;99.90;;;;;;5035899;28;20048;-58
2023/03/12 12:34:17;;;;;;;52.17;22.85;;;9.20;99.90;;;;;;5042357;28;20038;-58
2023/03/12 12:36:48;;;;;;;54.13;23.60;;;9.20;99.90;;;;;;5021235;28;20049;-58
2023/03/12 12:39:39;;;;;;;57.05;25.23;;;9.30;99.90;;;;;;5025447;28;20034;-58
2023/03/12 12:42:09;;;;;;;67.95;25.75;;;9.50;99.90;;;;;;5016660;28;20133;-58
2023/03/12 12:44:42;;;;;;;57.33;24.67;;;9.60;99.90;;;;;;5040686;28;20175;-58
2023/03/12 12:47:15;;;;;;;;;;;9.70;99.90;;;;;;5030454;28;20037;-58
2023/03/12 12:49:46;;;;;;;62.03;24.88;;;9.80;99.90;;;;;;5052932;28;19908;-58
2023/03/12 12:52:15;;;;;;;65.63;26.00;;;9.90;99.90;;;;;;5048395;28;20040;-58
2023/03/12 12:55:05;;;;;;;65.35;24.40;;;10.10;99.90;;;;;;5029191;28;20169;-58
2023/03/12 12:58:13;;;;;;;65.68;23.92;;;10.20;99.90;;;;;;5042634;28;20024;-58
2023/03/12 13:00:46;;;;;;;59.88;21.63;;;10.30;99.90;;;;;;5044195;28;20030;-58